14:50
Airports
History
Links
Donate
Help keep this website running!
PayPal
Bitcoin
Information on this page is community maintained and may be outdated or inaccurate and is intended for reference only or PC simulator navigating!
Always use approved charts for navigating.
KGWV
Glendale Fokker Field
Glendale Fokker Field (KGWV)
Glen Dale, West Virginia, United States (26038)
4
Lat/Lng:39° 56' 55.27" N / 80° 45' 34.31" W
39.948685 / -80.75953
Elevation:648'ft 198mMSL
ID / ICAO:KGWV
Runways:1
Longest:(01-19) 788.6m 2,587ft Grass
Distance To
Airport ID:
Nearby VORs <50NM
Nearby NDBs
Nearby WeatherUpdated 03-26-17 13:53 GMT
Nearby weather at KHLG, Wheeling Ohio Co located 16.7 nautical miles from KGWV
Altimeter: 30.08
Visibility: 10.0 statute miles
Wind: 12 knots (150°)
Temp: 17°c 63°f
Humidity: 59.2%

METAR: KHLG 261353Z 15012KT 10SM CLR 17/09 A3008 RMK AO2 SLP182 T01720089

(Powered by phpweather)
Runway 01 / 19
Dimensions:788.6 x 30.5m 2587' x 100'ft
Surface:Grass
Runway 01 [A]Runway 19 [B]
Heading:003°TH 183°TH
Lat:
Lng:
39° 56' 42.45"N
80° 45' 35.18"W
39° 57' 8.09"N
80° 45' 33.43"W
Google Map
Nearby Airports
(U) Marshall County 4.9 NM
KMPG SSE 164°
4 Twin Ash 15.5 NM
OI88 NW 306°
(C) Wheeling Ohio Co 16.7 NM
KHLG (WX) NNE 20°
4 P W Johnson Memorial 19.1 NM
75D SSW 196°
(R) Uphill 20.5 NM
PS67 ENE 57°
(U) Monroe County 21.6 NM
4G5 WSW 237°
(U) Barnesville-bradfield 23.2 NM
6G5 W 279°
VFR Chart
Flight Planning at SkyVector.com